Altoona, WI

7:40 PM CDT on May 29, 2015 (GMT -0500)
Lake Altoona County Park | | Change Station
CLOSE
Current Station
Personal Weather Station
Location: Altoona, WI
Elevation: 853 ft
Nearby Weather Stations

Elev 853 ft 44.81 °N, 91.42 °W | Updated 35 seconds ago

Mostly Cloudy
Mostly Cloudy
64.7 °F
Feels Like 64.7 °F
N
0.0
Wind Variable Wind from NNE
Gusts 3.0 mph

Today
High -- | Low -- °F
--% Chance of Precip.
Yesterday
High -- | Low -- °F
Precip. -- in
5:24 AM 8:41 PM
Waxing Gibbous, 87% visible
Pressure 29.90 in
Visibility 10.0 miles
Clouds Scattered Clouds 1200 ft
Overcast 4100 ft
Dew Point 62 °F
Humidity 90%
Rainfall 0.00 in
Snow Depth Not available.
UV 0 out of 12
Pollen .80 out of 12
Air Quality Not available.
Flu Activity Sporadic
SPECI KEAU 300035Z 03006KT 10SM SCT012 OVC041 18/16 A2990 RMK AO2 T01830161

More Conditions Fewer Conditions

Pressure 29.90 in
Visibility 10.0 miles
Clouds Scattered Clouds 1200 ft
Overcast 4100 ft
Dew Point 62 °F
Humidity 90%
Rainfall 0.00 in
Snow Depth Not available.
UV 0 out of 12
Pollen .80 out of 12
Air Quality Not available.
Flu Activity Sporadic
SPECI KEAU 300035Z 03006KT 10SM SCT012 OVC041 18/16 A2990 RMK AO2 T01830161

More Conditions Fewer Conditions

10-Day Weather Forecast

Almanac

Astronomy

May. 29, 2015 Rise Set
Actual Time
Civil Twilight
Nautical Twilight
Astronomical Twilight
Moon
Length of Visible Light
Length of Day
Tomorrow will be .
, % of the Moon is Illuminated

Today's Extremes

State Highs State Lows

Community

WunderPhotos

Upload Photos

1,825,411 photos uploaded!

WunderBlogs® & News

Nearby

Air Quality

  Air Quality AQ Index Pollutant
Not available.

Snow Depth

Station Depth Elevation

Earthquake Activity

City Distance Mag. Time & Date
Minimum magnitude displayed is 2.5.

Coastal Water Temperatures

Place Temperature

Stations

Nearby Weather Stations

Station Location Temp. Windchill Dew Point Humidity Wind Precip. Elev Updated Type